METAR Data
IDs: Format: Raw Decoded Include TAF

Data at: 2243 UTC 02 Aug 2021

LIVE 022155Z 36003KT 9999 SCT030 10/09 Q1019 RMK SCT VIS MIN 9999